Time;durP1;ratioP1;P1;durP2;ratioP2;P2;SDS_P1;SDS_P2;PMS_P1;PMS_P2;Temp;Humidity;BMP_temperature;BMP_pressure;BME280_temperature;BME280_humidity;BME280_pressure;Samples;Min_cycle;Max_cycle;Signal;HPM_P1;HPM_P2
2023/05/05 00:01:26;;;;;;;2.45;1.70;;;;;;;;;;10227126;28;20051;-82
2023/05/05 00:06:31;;;;;;;1.80;1.42;;;;;;;;;;10186715;28;20043;-83
2023/05/05 00:11:34;;;;;;;2.95;1.67;;;;;;;;;;10248216;28;20054;-83
2023/05/05 00:16:38;;;;;;;2.15;1.55;;;;;;;;;;10191181;28;20052;-83
2023/05/05 00:21:43;;;;;;;1.67;1.10;;;;;;;;;;10243296;28;20055;-82
2023/05/05 00:26:46;;;;;;;1.45;1.30;;;;;;;;;;10191964;28;20043;-83
2023/05/05 00:31:51;;;;;;;1.38;1.27;;;;;;;;;;10173139;28;20055;-83
2023/05/05 00:36:56;;;;;;;1.48;1.38;;;;;;;;;;10240561;28;20056;-83
2023/05/05 00:41:59;;;;;;;4.22;1.55;;;;;;;;;;10253907;28;20048;-83
2023/05/05 00:47:03;;;;;;;1.40;1.20;;;;;;;;;;10242419;28;20056;-83
2023/05/05 00:52:08;;;;;;;1.30;1.10;;;;;;;;;;10248986;28;20059;-83
2023/05/05 00:57:11;;;;;;;3.13;1.45;;;;;;;;;;10243458;28;20059;-83
2023/05/05 01:02:14;;;;;;;2.17;1.40;;;;;;;;;;10181096;28;20044;-83
2023/05/05 01:07:26;;;;;;;1.65;1.55;;;;;;;;;;10188277;28;20046;-83
2023/05/05 01:12:39;;;;;;;2.38;1.50;;;;;;;;;;10258138;28;20048;-83
2023/05/05 01:17:47;;;;;;;3.38;1.50;;;;;;;;;;10255607;28;20062;-84
2023/05/05 01:22:57;;;;;;;1.30;1.20;;;;;;;;;;10180861;28;20420;-83
2023/05/05 01:28:15;;;;;;;5.68;1.90;;;;;;;;;;10244842;28;20082;-84
2023/05/05 01:33:25;;;;;;;1.70;1.33;;;;;;;;;;10258198;28;20061;-83
2023/05/05 01:38:36;;;;;;;2.15;1.73;;;;;;;;;;10250044;28;20063;-83
2023/05/05 01:43:42;;;;;;;1.70;1.60;;;;;;;;;;10190773;28;20824;-83
2023/05/05 01:48:49;;;;;;;2.08;1.70;;;;;;;;;;10220895;28;20060;-83
2023/05/05 01:53:53;;;;;;;;;;;;;;;;;;10226068;28;20059;-83
2023/05/05 01:58:57;;;;;;;1.90;1.20;;;;;;;;;;10211302;28;19923;-83
2023/05/05 02:04:03;;;;;;;1.67;1.58;;;;;;;;;;10223584;28;20055;-83
2023/05/05 02:09:07;;;;;;;1.75;1.33;;;;;;;;;;10226958;28;20054;-84
2023/05/05 02:14:11;;;;;;;1.40;1.27;;;;;;;;;;10228067;28;20067;-83
2023/05/05 02:19:21;;;;;;;2.17;1.48;;;;;;;;;;10222961;28;20040;-84
2023/05/05 02:24:25;;;;;;;1.45;1.20;;;;;;;;;;10150642;28;20079;-84
2023/05/05 02:29:32;;;;;;;1.55;1.20;;;;;;;;;;10225992;28;20405;-84
2023/05/05 02:34:40;;;;;;;1.63;1.40;;;;;;;;;;10155398;28;20114;-84
2023/05/05 02:39:57;;;;;;;1.20;1.10;;;;;;;;;;10207498;28;20079;-84
2023/05/05 02:45:07;;;;;;;1.33;1.15;;;;;;;;;;10192143;23;20064;-86
2023/05/05 02:50:15;;;;;;;1.52;1.42;;;;;;;;;;10145951;28;20444;-89
2023/05/05 02:55:33;;;;;;;2.85;1.50;;;;;;;;;;10144702;28;20053;-86
2023/05/05 03:00:42;;;;;;;1.70;1.08;;;;;;;;;;10124371;28;20059;-89
2023/05/05 03:05:53;;;;;;;1.40;1.27;;;;;;;;;;10142767;28;20075;-86
2023/05/05 03:11:04;;;;;;;1.73;1.40;;;;;;;;;;10155659;28;20061;-86
2023/05/05 03:16:11;;;;;;;1.98;1.20;;;;;;;;;;10148634;28;20053;-87
2023/05/05 03:21:16;;;;;;;2.50;1.27;;;;;;;;;;10127365;28;20526;-86
2023/05/05 03:26:20;;;;;;;1.40;1.30;;;;;;;;;;10135142;29;20136;-89
2023/05/05 03:31:24;;;;;;;1.65;1.30;;;;;;;;;;10130810;28;20046;-90
2023/05/05 03:36:32;;;;;;;2.10;1.30;;;;;;;;;;10144014;28;20057;-87
2023/05/05 03:41:36;;;;;;;2.20;1.30;;;;;;;;;;10155515;28;20526;-88
2023/05/05 03:46:41;;;;;;;1.75;1.38;;;;;;;;;;10160527;28;20505;-91
2023/05/05 03:51:49;;;;;;;1.42;1.25;;;;;;;;;;10134151;28;20045;-88
2023/05/05 03:56:53;;;;;;;1.42;1.33;;;;;;;;;;10166476;28;20057;-87
2023/05/05 04:01:57;;;;;;;1.33;1.23;;;;;;;;;;10194196;28;20084;-87
2023/05/05 04:07:01;;;;;;;1.70;1.20;;;;;;;;;;10164442;28;20292;-87
2023/05/05 04:12:06;;;;;;;3.28;1.40;;;;;;;;;;10188291;28;20058;-91
2023/05/05 04:17:10;;;;;;;2.47;1.73;;;;;;;;;;10169028;28;20049;-88
2023/05/05 04:22:15;;;;;;;1.83;1.52;;;;;;;;;;10136933;29;20045;-88
2023/05/05 04:27:18;;;;;;;2.25;1.88;;;;;;;;;;10207788;28;20077;-90
2023/05/05 04:32:23;;;;;;;2.00;1.33;;;;;;;;;;10152013;28;20070;-90
2023/05/05 04:37:28;;;;;;;1.70;1.45;;;;;;;;;;10219012;28;20610;-89
2023/05/05 04:42:33;;;;;;;4.03;1.92;;;;;;;;;;10180455;28;20414;-91
2023/05/05 04:47:38;;;;;;;2.25;1.92;;;;;;;;;;10196584;28;20043;-89
2023/05/05 04:52:46;;;;;;;2.75;1.70;;;;;;;;;;10172206;28;20111;-89
2023/05/05 04:57:50;;;;;;;3.40;1.90;;;;;;;;;;10219065;28;20128;-92
2023/05/05 05:02:53;;;;;;;2.28;1.65;;;;;;;;;;10169104;28;20130;-88
2023/05/05 05:07:59;;;;;;;1.85;1.50;;;;;;;;;;10163495;28;20049;-88
2023/05/05 05:13:03;;;;;;;3.42;1.58;;;;;;;;;;10152205;28;20061;-88
2023/05/05 05:18:07;;;;;;;1.95;1.35;;;;;;;;;;10185771;28;20176;-91
2023/05/05 05:23:12;;;;;;;2.13;1.40;;;;;;;;;;10188279;28;20746;-88
2023/05/05 05:28:20;;;;;;;2.25;1.60;;;;;;;;;;10166920;28;20049;-90
2023/05/05 05:33:37;;;;;;;3.20;1.70;;;;;;;;;;10213956;28;20094;-89
2023/05/05 05:38:54;;;;;;;1.70;1.30;;;;;;;;;;10130183;28;20129;-92
2023/05/05 05:44:02;;;;;;;2.40;1.60;;;;;;;;;;10138864;28;20050;-90
2023/05/05 05:49:06;;;;;;;2.55;1.73;;;;;;;;;;10121354;28;20056;-89
2023/05/05 05:54:11;;;;;;;2.85;1.83;;;;;;;;;;10151911;28;20086;-92
2023/05/05 05:59:15;;;;;;;2.15;1.55;;;;;;;;;;10170695;28;20106;-88
2023/05/05 06:04:24;;;;;;;1.42;1.33;;;;;;;;;;10184245;28;20220;-88
2023/05/05 06:09:29;;;;;;;1.65;1.40;;;;;;;;;;10186505;28;20073;-89
2023/05/05 06:14:32;;;;;;;2.72;1.48;;;;;;;;;;10168972;28;20055;-89
2023/05/05 06:19:38;;;;;;;1.27;1.17;;;;;;;;;;10191362;28;20045;-88
2023/05/05 06:24:43;;;;;;;1.25;1.15;;;;;;;;;;10150764;28;20210;-88
2023/05/05 06:29:48;;;;;;;1.52;1.23;;;;;;;;;;10164420;28;20064;-92
2023/05/05 06:34:51;;;;;;;2.42;1.27;;;;;;;;;;10102746;28;20076;-88
2023/05/05 06:39:56;;;;;;;2.10;1.30;;;;;;;;;;10178976;28;20066;-89
2023/05/05 06:45:00;;;;;;;1.88;1.13;;;;;;;;;;10193709;28;20090;-91
2023/05/05 06:50:04;;;;;;;2.17;1.65;;;;;;;;;;10193692;28;20053;-88
2023/05/05 06:55:10;;;;;;;3.08;2.10;;;;;;;;;;10197450;28;20057;-89
2023/05/05 07:00:16;;;;;;;1.40;1.30;;;;;;;;;;10178734;28;20051;-89
2023/05/05 07:05:19;;;;;;;1.70;1.60;;;;;;;;;;10204436;28;20518;-90
2023/05/05 07:10:28;;;;;;;1.95;1.65;;;;;;;;;;10150068;28;20537;-89
2023/05/05 07:15:32;;;;;;;1.50;1.40;;;;;;;;;;10198573;28;20312;-89
2023/05/05 07:20:35;;;;;;;2.22;1.60;;;;;;;;;;10138885;28;20049;-90
2023/05/05 07:25:40;;;;;;;3.30;1.85;;;;;;;;;;10147833;28;20039;-89
2023/05/05 07:30:43;;;;;;;4.07;1.80;;;;;;;;;;10173499;28;20068;-87
2023/05/05 07:35:46;;;;;;;2.08;1.88;;;;;;;;;;10185253;28;20499;-88
2023/05/05 07:40:51;;;;;;;2.75;1.90;;;;;;;;;;10180833;28;20152;-88
2023/05/05 07:45:55;;;;;;;1.80;1.48;;;;;;;;;;10182755;28;20149;-91
2023/05/05 07:50:58;;;;;;;2.03;1.73;;;;;;;;;;10159354;28;20057;-87
2023/05/05 07:56:03;;;;;;;1.20;1.10;;;;;;;;;;10178096;28;20147;-87
2023/05/05 08:01:09;;;;;;;2.47;1.53;;;;;;;;;;10227210;28;20691;-86
2023/05/05 08:06:20;;;;;;;2.08;1.83;;;;;;;;;;10160660;28;20356;-87
2023/05/05 08:11:26;;;;;;;2.25;1.88;;;;;;;;;;10166709;28;20051;-86
2023/05/05 08:16:31;;;;;;;1.52;1.38;;;;;;;;;;10168160;28;20051;-87
2023/05/05 08:21:35;;;;;;;2.45;2.08;;;;;;;;;;10165767;28;20063;-88
2023/05/05 08:26:40;;;;;;;1.98;1.85;;;;;;;;;;10144456;28;20056;-86
2023/05/05 08:31:45;;;;;;;2.63;1.40;;;;;;;;;;10175836;28;20057;-86
2023/05/05 08:36:49;;;;;;;1.27;1.05;;;;;;;;;;10125717;28;20418;-89
2023/05/05 08:41:55;;;;;;;0.80;0.80;;;;;;;;;;10149038;28;20053;-86
2023/05/05 08:47:02;;;;;;;0.90;0.90;;;;;;;;;;10135045;28;20060;-86
2023/05/05 08:52:08;;;;;;;0.98;0.73;;;;;;;;;;10217547;28;20047;-86
2023/05/05 08:57:18;;;;;;;3.10;0.50;;;;;;;;;;10189217;28;20458;-87
2023/05/05 09:02:27;;;;;;;1.15;0.50;;;;;;;;;;10194505;28;20051;-88
2023/05/05 09:07:31;;;;;;;2.78;0.90;;;;;;;;;;10146021;29;20047;-87
2023/05/05 09:12:39;;;;;;;1.30;0.60;;;;;;;;;;10149701;28;20053;-87
2023/05/05 09:17:42;;;;;;;1.63;0.60;;;;;;;;;;10178119;28;20126;-85
2023/05/05 09:22:47;;;;;;;1.80;0.80;;;;;;;;;;10178011;28;20038;-86
2023/05/05 09:27:51;;;;;;;0.50;0.50;;;;;;;;;;10131802;28;20057;-86
2023/05/05 09:32:55;;;;;;;1.65;0.80;;;;;;;;;;10166534;28;20135;-87
2023/05/05 09:38:11;;;;;;;1.67;0.60;;;;;;;;;;10109653;28;20144;-86
2023/05/05 09:43:17;;;;;;;1.00;0.70;;;;;;;;;;10154335;28;20057;-87
2023/05/05 09:48:26;;;;;;;1.92;0.60;;;;;;;;;;10207657;28;20045;-88
2023/05/05 09:53:41;;;;;;;1.42;0.77;;;;;;;;;;10199507;28;20598;-86
2023/05/05 09:58:46;;;;;;;2.75;0.65;;;;;;;;;;10169591;28;20063;-87
2023/05/05 10:03:53;;;;;;;2.03;0.60;;;;;;;;;;10166131;28;20059;-86
2023/05/05 10:09:01;;;;;;;1.05;0.45;;;;;;;;;;10151262;28;20766;-86
2023/05/05 10:14:07;;;;;;;0.60;0.30;;;;;;;;;;10155045;28;20489;-88
2023/05/05 10:19:13;;;;;;;1.67;0.50;;;;;;;;;;10141486;28;20056;-88
2023/05/05 10:24:23;;;;;;;1.20;0.52;;;;;;;;;;10209271;28;20142;-87
2023/05/05 10:29:39;;;;;;;1.63;0.77;;;;;;;;;;10081183;28;20189;-86
2023/05/05 10:34:50;;;;;;;;;;;;;;;;;;10154269;28;20051;-86
2023/05/05 10:39:54;;;;;;;0.85;0.50;;;;;;;;;;10193001;28;19924;-86
2023/05/05 10:44:59;;;;;;;1.83;0.55;;;;;;;;;;10127038;28;20166;-84
2023/05/05 10:50:07;;;;;;;1.33;0.52;;;;;;;;;;10132280;28;20076;-84
2023/05/05 10:55:16;;;;;;;0.80;0.52;;;;;;;;;;10142826;28;20051;-84
2023/05/05 11:00:51;;;;;;;1.20;0.60;;;;;;;;;;10179641;28;20056;-84
2023/05/05 11:06:12;;;;;;;0.80;0.60;;;;;;;;;;10118521;28;20073;-85
2023/05/05 11:11:15;;;;;;;0.35;0.30;;;;;;;;;;10166030;28;20083;-85
2023/05/05 11:16:46;;;;;;;1.05;0.38;;;;;;;;;;10140824;28;20061;-84
2023/05/05 11:22:05;;;;;;;0.60;0.40;;;;;;;;;;10160826;28;20054;-85
2023/05/05 11:27:09;;;;;;;1.27;0.47;;;;;;;;;;10153847;28;20055;-84
2023/05/05 11:32:15;;;;;;;0.40;0.32;;;;;;;;;;10133429;28;20059;-85
2023/05/05 11:37:22;;;;;;;1.65;0.50;;;;;;;;;;10150033;29;20053;-83
2023/05/05 11:42:26;;;;;;;1.58;0.40;;;;;;;;;;10166784;28;20911;-83
2023/05/05 11:47:32;;;;;;;0.47;0.23;;;;;;;;;;10198256;28;20069;-84
2023/05/05 11:52:35;;;;;;;1.88;0.40;;;;;;;;;;10159369;28;20522;-84
2023/05/05 11:57:39;;;;;;;0.43;0.25;;;;;;;;;;10115475;28;20358;-83
2023/05/05 12:02:46;;;;;;;1.10;0.20;;;;;;;;;;10176679;28;20061;-83
2023/05/05 12:07:58;;;;;;;1.50;0.73;;;;;;;;;;10184745;28;20108;-83
2023/05/05 12:13:01;;;;;;;0.63;0.30;;;;;;;;;;10165370;28;20576;-83
2023/05/05 12:18:17;;;;;;;0.93;0.28;;;;;;;;;;10081088;28;20511;-83
2023/05/05 12:23:22;;;;;;;0.80;0.30;;;;;;;;;;10156642;28;20055;-83
2023/05/05 12:28:25;;;;;;;0.68;0.30;;;;;;;;;;10148861;28;20499;-83
2023/05/05 12:33:30;;;;;;;1.15;0.40;;;;;;;;;;10153024;28;20752;-83
2023/05/05 12:38:34;;;;;;;0.50;0.30;;;;;;;;;;10131399;28;20461;-83
2023/05/05 12:43:37;;;;;;;1.38;0.40;;;;;;;;;;10129039;28;20053;-83
2023/05/05 12:48:44;;;;;;;0.88;0.45;;;;;;;;;;10146398;28;20492;-83
2023/05/05 12:54:02;;;;;;;0.30;0.30;;;;;;;;;;10157656;28;20049;-84
2023/05/05 12:59:07;;;;;;;0.73;0.40;;;;;;;;;;10168626;28;20053;-84
2023/05/05 13:04:13;;;;;;;1.13;0.30;;;;;;;;;;10188150;28;20053;-84
2023/05/05 13:09:23;;;;;;;1.00;0.40;;;;;;;;;;10194194;28;20427;-84
2023/05/05 13:14:27;;;;;;;0.90;0.43;;;;;;;;;;10179998;28;20043;-84
2023/05/05 13:19:34;;;;;;;1.20;0.68;;;;;;;;;;10226906;28;20047;-84
2023/05/05 13:24:37;;;;;;;0.73;0.35;;;;;;;;;;10129697;28;20054;-85
2023/05/05 13:29:49;;;;;;;1.13;0.40;;;;;;;;;;10193191;29;20517;-84
2023/05/05 13:34:53;;;;;;;1.27;0.50;;;;;;;;;;10176361;28;20047;-84
2023/05/05 13:39:58;;;;;;;1.13;0.40;;;;;;;;;;10165775;28;20134;-84
2023/05/05 13:45:01;;;;;;;0.40;0.30;;;;;;;;;;10162266;28;20058;-83
2023/05/05 13:50:08;;;;;;;1.27;0.50;;;;;;;;;;10132743;28;20053;-83
2023/05/05 13:55:12;;;;;;;0.73;0.50;;;;;;;;;;10146518;28;20054;-83
2023/05/05 14:00:16;;;;;;;0.65;0.20;;;;;;;;;;10086190;28;20053;-83
2023/05/05 14:05:22;;;;;;;0.50;0.30;;;;;;;;;;10226954;28;20469;-83
2023/05/05 14:10:28;;;;;;;0.90;0.50;;;;;;;;;;10162367;28;20055;-84
2023/05/05 14:15:32;;;;;;;1.00;0.35;;;;;;;;;;10195943;28;20514;-83
2023/05/05 14:20:36;;;;;;;0.40;0.30;;;;;;;;;;10196176;29;20419;-83
2023/05/05 14:25:39;;;;;;;1.20;0.30;;;;;;;;;;10179937;28;20048;-83
2023/05/05 14:30:43;;;;;;;1.05;0.40;;;;;;;;;;10200923;28;20058;-83
2023/05/05 14:35:48;;;;;;;0.85;0.35;;;;;;;;;;10205427;28;20041;-83
2023/05/05 14:40:51;;;;;;;0.65;0.30;;;;;;;;;;10185888;28;20062;-83
2023/05/05 14:45:54;;;;;;;1.58;0.63;;;;;;;;;;11114911;23;20057;-82
2023/05/05 14:50:59;;;;;;;0.55;0.40;;;;;;;;;;10150304;28;20048;-82
2023/05/05 14:56:03;;;;;;;2.25;0.63;;;;;;;;;;10145101;28;20517;-81
2023/05/05 15:01:06;;;;;;;4.35;0.88;;;;;;;;;;10150904;28;20060;-82
2023/05/05 15:06:11;;;;;;;1.42;0.73;;;;;;;;;;10152799;28;20073;-81
2023/05/05 15:11:14;;;;;;;1.48;1.02;;;;;;;;;;10154645;28;20052;-81
2023/05/05 15:16:18;;;;;;;1.77;0.82;;;;;;;;;;10210205;28;20048;-81
2023/05/05 15:21:22;;;;;;;1.50;0.93;;;;;;;;;;10207758;28;20044;-82
2023/05/05 15:26:26;;;;;;;0.77;0.57;;;;;;;;;;10197665;28;20429;-81
2023/05/05 15:31:29;;;;;;;1.95;0.47;;;;;;;;;;10138951;28;20718;-81
2023/05/05 15:36:34;;;;;;;0.68;0.50;;;;;;;;;;10203111;28;20056;-81
2023/05/05 15:41:37;;;;;;;0.40;0.40;;;;;;;;;;10214794;28;20056;-81
2023/05/05 15:46:41;;;;;;;0.75;0.30;;;;;;;;;;10215812;28;20060;-82
2023/05/05 15:51:46;;;;;;;1.67;0.93;;;;;;;;;;10213862;28;20040;-82
2023/05/05 15:56:49;;;;;;;0.60;0.50;;;;;;;;;;10204207;28;20044;-83
2023/05/05 16:01:53;;;;;;;2.08;0.80;;;;;;;;;;10180974;28;20052;-82
2023/05/05 16:06:58;;;;;;;1.65;0.32;;;;;;;;;;10200198;28;20052;-83
2023/05/05 16:12:01;;;;;;;1.00;0.45;;;;;;;;;;10147492;28;20457;-83
2023/05/05 16:17:04;;;;;;;1.27;0.40;;;;;;;;;;10209388;28;20052;-83
2023/05/05 16:22:09;;;;;;;1.23;0.40;;;;;;;;;;10196616;28;20052;-83
2023/05/05 16:27:13;;;;;;;0.70;0.40;;;;;;;;;;10210038;28;20060;-82
2023/05/05 16:32:16;;;;;;;0.75;0.32;;;;;;;;;;10214229;28;20056;-83
2023/05/05 16:37:21;;;;;;;1.98;0.40;;;;;;;;;;10207702;28;20052;-83
2023/05/05 16:42:24;;;;;;;0.57;0.30;;;;;;;;;;10211991;28;20048;-83
2023/05/05 16:53:07;;;;;;;0.93;0.30;;;;;;;;;;10285264;23;19923;-81
2023/05/05 16:58:11;;;;;;;1.10;0.40;;;;;;;;;;10151200;28;21096;-81
2023/05/05 17:03:15;;;;;;;0.90;0.30;;;;;;;;;;10188315;28;20132;-79
2023/05/05 17:09:06;;;;;;;0.77;0.32;;;;;;;;;;10240572;22;21124;-83
2023/05/05 17:14:09;;;;;;;0.60;0.20;;;;;;;;;;10164544;28;20067;-83
2023/05/05 17:19:12;;;;;;;0.57;0.10;;;;;;;;;;10234095;28;20056;-83
2023/05/05 17:24:17;;;;;;;1.27;0.20;;;;;;;;;;10165711;28;20048;-83
2023/05/05 17:29:22;;;;;;;0.65;0.40;;;;;;;;;;10242258;28;20079;-83
2023/05/05 17:34:25;;;;;;;0.35;0.20;;;;;;;;;;10234394;28;20147;-83
2023/05/05 17:39:30;;;;;;;0.60;0.32;;;;;;;;;;10221761;28;20528;-83
2023/05/05 17:44:33;;;;;;;0.75;0.30;;;;;;;;;;10167882;28;20529;-83
2023/05/05 17:49:36;;;;;;;0.30;0.20;;;;;;;;;;10238391;28;20521;-83
2023/05/05 17:54:41;;;;;;;0.38;0.20;;;;;;;;;;10260996;28;20054;-83
2023/05/05 17:59:45;;;;;;;0.45;0.30;;;;;;;;;;10302622;28;20057;-83
2023/05/05 18:04:48;;;;;;;0.77;0.20;;;;;;;;;;10230213;28;20417;-83
2023/05/05 18:09:55;;;;;;;0.30;0.20;;;;;;;;;;10236763;28;20059;-83
2023/05/05 18:15:00;;;;;;;1.00;0.30;;;;;;;;;;10151773;28;20067;-83
2023/05/05 18:20:05;;;;;;;0.77;0.30;;;;;;;;;;10166425;28;20055;-83
2023/05/05 18:25:10;;;;;;;1.00;0.50;;;;;;;;;;10260867;28;20067;-82
2023/05/05 18:30:14;;;;;;;1.50;0.40;;;;;;;;;;10232444;28;20060;-82
2023/05/05 18:35:17;;;;;;;0.77;0.47;;;;;;;;;;10236752;28;20056;-82
2023/05/05 18:40:22;;;;;;;0.32;0.20;;;;;;;;;;10235769;28;20056;-83
2023/05/05 18:45:25;;;;;;;0.68;0.30;;;;;;;;;;10246890;28;20075;-82
2023/05/05 18:50:29;;;;;;;0.63;0.20;;;;;;;;;;10228093;28;20052;-83
2023/05/05 18:55:33;;;;;;;0.50;0.30;;;;;;;;;;10238824;28;20044;-83
2023/05/05 19:00:37;;;;;;;0.50;0.25;;;;;;;;;;10235400;28;20048;-82
2023/05/05 19:05:40;;;;;;;0.32;0.20;;;;;;;;;;10183956;28;20524;-83
2023/05/05 19:10:45;;;;;;;0.68;0.25;;;;;;;;;;10175218;28;20059;-90
2023/05/05 19:15:49;;;;;;;0.68;0.22;;;;;;;;;;10243944;28;20054;-86
2023/05/05 19:20:52;;;;;;;0.57;0.32;;;;;;;;;;10171317;28;20055;-83
2023/05/05 19:25:57;;;;;;;0.85;0.30;;;;;;;;;;10240635;28;20051;-82
2023/05/05 19:31:00;;;;;;;1.40;0.50;;;;;;;;;;10238970;28;20422;-83
2023/05/05 19:36:54;;;;;;;0.50;0.40;;;;;;;;;;10215028;28;20048;-83
2023/05/05 19:41:59;;;;;;;1.83;0.60;;;;;;;;;;10225915;28;20118;-82
2023/05/05 19:47:02;;;;;;;1.20;0.40;;;;;;;;;;10232707;28;20196;-82
2023/05/05 19:52:06;;;;;;;0.50;0.30;;;;;;;;;;10217240;28;20052;-82
2023/05/05 19:57:11;;;;;;;0.65;0.40;;;;;;;;;;10210620;28;20402;-83
2023/05/05 20:02:15;;;;;;;1.85;0.35;;;;;;;;;;10217816;28;20103;-83
2023/05/05 20:07:19;;;;;;;1.27;0.38;;;;;;;;;;10232234;28;20048;-83
2023/05/05 20:12:24;;;;;;;1.98;0.70;;;;;;;;;;10214861;28;20189;-82
2023/05/05 20:17:27;;;;;;;2.17;0.63;;;;;;;;;;10168666;28;20043;-82
2023/05/05 20:22:30;;;;;;;1.98;0.65;;;;;;;;;;10167457;28;20084;-83
2023/05/05 20:27:35;;;;;;;0.80;0.43;;;;;;;;;;10226878;28;20102;-83
2023/05/05 20:32:39;;;;;;;0.75;0.40;;;;;;;;;;10231535;28;20051;-83
2023/05/05 20:37:43;;;;;;;1.30;0.50;;;;;;;;;;10234721;28;20040;-88
2023/05/05 20:42:48;;;;;;;1.17;0.30;;;;;;;;;;10232738;28;20139;-89
2023/05/05 20:47:52;;;;;;;0.55;0.28;;;;;;;;;;10184983;28;20139;-85
2023/05/05 20:52:55;;;;;;;0.22;0.22;;;;;;;;;;10244367;28;20496;-88
2023/05/05 20:58:00;;;;;;;0.47;0.30;;;;;;;;;;10179077;28;20547;-84
2023/05/05 21:03:04;;;;;;;1.17;0.30;;;;;;;;;;10247436;28;20052;-89
2023/05/05 21:08:07;;;;;;;0.30;0.30;;;;;;;;;;10231707;28;20055;-85
2023/05/05 21:13:12;;;;;;;1.10;0.30;;;;;;;;;;10182904;28;21067;-86
2023/05/05 21:18:15;;;;;;;0.85;0.20;;;;;;;;;;10240861;28;20078;-84
2023/05/05 21:23:19;;;;;;;1.55;0.43;;;;;;;;;;10249629;28;20055;-88
2023/05/05 21:28:24;;;;;;;0.73;0.30;;;;;;;;;;10242739;28;20483;-85
2023/05/05 21:33:27;;;;;;;0.80;0.30;;;;;;;;;;10176326;28;20048;-86
2023/05/05 21:38:30;;;;;;;1.17;0.40;;;;;;;;;;10241366;28;20858;-87
2023/05/05 21:43:35;;;;;;;0.50;0.30;;;;;;;;;;10234589;28;20441;-85
2023/05/05 21:48:40;;;;;;;1.05;0.68;;;;;;;;;;10174056;28;20048;-84
2023/05/05 21:53:43;;;;;;;1.90;0.40;;;;;;;;;;10246914;28;20054;-86
2023/05/05 21:58:48;;;;;;;2.35;0.32;;;;;;;;;;10241937;28;20052;-87
2023/05/05 22:03:51;;;;;;;1.85;0.57;;;;;;;;;;10247376;28;20052;-84
2023/05/05 22:08:55;;;;;;;1.25;0.30;;;;;;;;;;10255127;28;20062;-85
2023/05/05 22:14:00;;;;;;;0.85;0.47;;;;;;;;;;10182880;28;20060;-89
2023/05/05 22:19:03;;;;;;;2.83;0.60;;;;;;;;;;10247109;28;20060;-85
2023/05/05 22:24:07;;;;;;;3.00;0.50;;;;;;;;;;10182962;28;20063;-84
2023/05/05 22:29:11;;;;;;;0.50;0.45;;;;;;;;;;10253419;28;20095;-84
2023/05/05 22:34:17;;;;;;;1.70;0.40;;;;;;;;;;10228539;28;20673;-84
2023/05/05 22:39:21;;;;;;;1.50;0.80;;;;;;;;;;10241286;28;20482;-87
2023/05/05 22:44:25;;;;;;;1.02;0.73;;;;;;;;;;10246910;28;20346;-83
2023/05/05 22:49:29;;;;;;;1.63;1.10;;;;;;;;;;10230988;28;20048;-89
2023/05/05 22:54:32;;;;;;;1.85;0.77;;;;;;;;;;10243827;28;20056;-85
2023/05/05 22:59:37;;;;;;;0.47;0.43;;;;;;;;;;10171881;28;20637;-88
2023/05/05 23:04:40;;;;;;;1.63;0.80;;;;;;;;;;10251414;28;20052;-87
2023/05/05 23:09:43;;;;;;;2.17;0.60;;;;;;;;;;10242164;28;20079;-84
2023/05/05 23:14:48;;;;;;;1.20;0.88;;;;;;;;;;10248338;28;20052;-86
2023/05/05 23:19:52;;;;;;;1.23;0.77;;;;;;;;;;10182373;28;20792;-86
2023/05/05 23:24:55;;;;;;;0.73;0.70;;;;;;;;;;10254765;28;20062;-89
2023/05/05 23:30:02;;;;;;;0.85;0.60;;;;;;;;;;10185410;28;20224;-85
2023/05/05 23:35:11;;;;;;;1.92;1.23;;;;;;;;;;10234285;28;20055;-85
2023/05/05 23:40:14;;;;;;;2.58;1.05;;;;;;;;;;10181189;28;20480;-84
2023/05/05 23:45:19;;;;;;;1.20;0.70;;;;;;;;;;10177537;28;20603;-84
2023/05/05 23:50:24;;;;;;;1.80;0.80;;;;;;;;;;10232834;28;20051;-84
2023/05/05 23:55:27;;;;;;;1.60;0.57;;;;;;;;;;10184200;28;20056;-86
